71MI weather

Belleville (Johnston) Airport
Belleville, Michigan, United States

Public forecast

Using degrees Fahrenheit for public forecast. Weather courtesy of forecast.io.

Closest aviation weather report (METAR) to Belleville (Johnston) Airport

Closest report is Willow Run Airport, 9.2 nm (17.1 km) N. Retrieved 2020/02/23 10:53 UTC (34 minutes ago):

KYIP 231053Z 20007KT 10SM CLR M01/M07 A3006 RMK AO2 SLP182 T10061067

Closest aviation forecast (TAF) to Belleville (Johnston) Airport

Closest forecast is Willow Run Airport, 9.2 nm (17.1 km) N. Retrieved 2020/02/23 06:28 UTC (5 hours ago):

TAF KYIP 230525Z 2306/2406 22009KT P6SM SCT250 FM231800 21013G22KT P6SM SCT050 SCT250